Fort Lauderdale Executive Airport
KFXE : now visible

Airfield :











YOU CAN JOIN US ON...

 
LOGIN :

Register | Disclaimer

   EN    FR    IT 

 









Legend :    VFR   Marginal VFR   IFR   Intensive IFR   Very Intensive IFR
Visi :
Ceiling :
>= 8 km
>= 3000ft
5 to 8 km
1000 to 3000 ft
1500m to 5 km
500 to 1000 ft
800 to 1500m
200 to 500 ft
< 800m
< 200 ft
Symbols :   Thunderstorms  Fog  Heavy snow  Heavy precipitations  Wind > 20 kt






- Airport Elevation : 13 ft


KFXE - Fort Lauderdale Executive

CURRENT METAR :
  • 080853Z 35004KT 10SM SCT046 18/16 A3011 RMK AO2 SLP197 T01830156 55005

EXPIRED METARs :
  • 080753Z 34005KT 10SM SCT095 18/16 A3011 RMK AO2 SLP197 T01830156
  • 080653Z 00000KT 10SM OVC095 17/15 A3012 RMK AO2 SLP200 T01720150

TAF KFXE
Valid from the 08 at 06:00 until the 09 at 06:00 UTC


080546Z 0806/0906 VRB03KT P6SM FEW050 BKN120
FM081400 07008KT P6SM SCT035 BKN080
FM081800 09011KT P6SM SCT030 BKN060
FM090300 VRB03KT P6SM FEW040 SCT100



MET'MAP, your aeronautical weather chart ! - Copyright ORBIFLY December 2007 - Disclaimer

ORBIFLY MET'MAP TEAM :

Programming & Development : Alexandra Zaïnal
Concept & original design : Baudouin d'Aumeries
Assistance for programming : Marc-Olivier Méhu
Technical & hardware support : Manuel Goepfert

Contact : metmap@orbifly.com




SOURCES & CREDITS :

   NOAA       Earth
Advisory